createdAt,value
2019-01-23T00:00:42.155Z,98810.91
2019-01-23T00:03:09.332Z,98811.73
2019-01-23T00:05:36.972Z,98814.03
2019-01-23T00:08:04.749Z,98808.69
2019-01-23T00:10:31.953Z,98805.11
2019-01-23T00:12:59.035Z,98796.80
2019-01-23T00:15:26.253Z,98794.14
2019-01-23T00:17:53.460Z,98793.97
2019-01-23T00:20:20.534Z,98785.41
2019-01-23T00:22:47.739Z,98783.42
2019-01-23T00:25:14.859Z,98785.52
2019-01-23T00:27:42.012Z,98791.13
2019-01-23T00:30:08.726Z,98789.58
2019-01-23T00:32:35.905Z,98785.06
2019-01-23T00:35:02.622Z,98784.05
2019-01-23T00:37:29.690Z,98779.38
2019-01-23T00:39:56.869Z,98775.69
2019-01-23T00:42:23.993Z,98786.19
2019-01-23T00:44:51.035Z,98786.09
2019-01-23T00:47:17.756Z,98787.89
2019-01-23T00:49:44.504Z,98785.02
2019-01-23T00:52:11.669Z,98783.09
2019-01-23T00:54:38.323Z,98779.39
2019-01-23T00:57:05.455Z,98781.92
2019-01-23T00:59:32.607Z,98780.31
2019-01-23T01:01:59.255Z,98780.08
2019-01-23T01:04:26.391Z,98781.36
2019-01-23T01:06:53.162Z,98775.86
2019-01-23T01:09:19.814Z,98772.91
2019-01-23T01:11:46.948Z,98771.47
2019-01-23T01:14:14.084Z,98769.31
2019-01-23T01:16:41.258Z,98760.81
2019-01-23T01:19:08.350Z,98756.98
2019-01-23T01:21:35.419Z,98752.56
2019-01-23T01:24:02.466Z,98746.44
2019-01-23T01:26:29.191Z,98748.80
2019-01-23T01:28:56.285Z,98744.64
2019-01-23T01:31:23.407Z,98742.42
2019-01-23T01:33:50.562Z,98744.14
2019-01-23T01:36:17.241Z,98746.05
2019-01-23T01:38:44.223Z,98737.71
2019-01-23T01:41:11.271Z,98744.31
2019-01-23T01:43:38.404Z,98739.73
2019-01-23T01:46:05.599Z,98749.33
2019-01-23T01:48:32.321Z,98741.97
2019-01-23T01:50:59.029Z,98740.80
2019-01-23T01:53:26.256Z,98732.12
2019-01-23T01:55:52.966Z,98725.45
2019-01-23T01:58:20.148Z,98721.09
2019-01-23T02:00:46.932Z,98716.67
2019-01-23T02:03:15.606Z,98711.06
2019-01-23T02:05:42.386Z,98711.03
2019-01-23T02:08:09.128Z,98702.70
2019-01-23T02:10:35.846Z,98697.83
2019-01-23T02:13:02.516Z,98699.45
2019-01-23T02:15:29.322Z,98692.78
2019-01-23T02:17:56.405Z,98692.92
2019-01-23T02:20:23.430Z,98689.00
2019-01-23T02:22:50.174Z,98682.13
2019-01-23T02:25:17.214Z,98681.09
2019-01-23T02:27:44.698Z,98681.23
2019-01-23T02:30:11.414Z,98680.52
2019-01-23T02:32:38.479Z,98678.53
2019-01-23T02:35:05.205Z,98674.02
2019-01-23T02:37:32.376Z,98676.47
2019-01-23T02:39:59.430Z,98677.13
2019-01-23T02:42:26.471Z,98675.22
2019-01-23T02:44:54.132Z,98682.47
2019-01-23T02:47:21.157Z,98681.19
2019-01-23T02:49:47.859Z,98679.73
2019-01-23T02:52:14.655Z,98669.77
2019-01-23T02:54:41.467Z,98673.47
2019-01-23T02:57:08.546Z,98665.77
2019-01-23T02:59:35.709Z,98662.84
2019-01-23T03:02:02.358Z,98666.61
2019-01-23T03:04:29.494Z,98668.64
2019-01-23T03:06:56.616Z,98665.89
2019-01-23T03:09:23.694Z,98665.89
2019-01-23T03:11:50.715Z,98663.11
2019-01-23T03:14:17.916Z,98670.09
2019-01-23T03:16:44.911Z,98670.90
2019-01-23T03:19:11.610Z,98668.89
2019-01-23T03:21:39.077Z,98668.77
2019-01-23T03:24:06.217Z,98667.23
2019-01-23T03:26:33.365Z,98670.91
2019-01-23T03:29:00.566Z,98670.11
2019-01-23T03:31:27.790Z,98666.84
2019-01-23T03:33:54.440Z,98663.91
2019-01-23T03:36:21.151Z,98662.94
2019-01-23T03:38:47.923Z,98663.03
2019-01-23T03:41:14.563Z,98664.36
2019-01-23T03:43:41.640Z,98662.05
2019-01-23T03:46:08.818Z,98664.69
2019-01-23T03:48:35.497Z,98657.28
2019-01-23T03:51:02.176Z,98654.16
2019-01-23T03:53:28.973Z,98656.69
2019-01-23T03:55:56.061Z,98653.50
2019-01-23T03:58:22.714Z,98651.08
2019-01-23T04:00:49.953Z,98647.45
2019-01-23T04:03:17.767Z,98649.75
2019-01-23T04:05:45.716Z,98646.88
2019-01-23T04:08:12.455Z,98649.88
2019-01-23T04:10:39.585Z,98647.45
2019-01-23T04:13:06.601Z,98645.98
2019-01-23T04:15:33.752Z,98643.51
2019-01-23T04:18:00.820Z,98643.07
2019-01-23T04:20:27.872Z,98644.95
2019-01-23T04:22:55.023Z,98645.91
2019-01-23T04:25:22.047Z,98644.44
2019-01-23T04:27:50.689Z,98639.04
2019-01-23T04:30:17.800Z,98639.83
2019-01-23T04:32:44.827Z,98639.51
2019-01-23T04:35:11.487Z,98637.90
2019-01-23T04:37:38.620Z,98631.44
2019-01-23T04:40:05.280Z,98624.98
2019-01-23T04:42:32.021Z,98625.22
2019-01-23T04:44:58.725Z,98624.30
2019-01-23T04:47:25.817Z,98621.59
2019-01-23T04:49:52.856Z,98619.09
2019-01-23T04:52:19.982Z,98620.45
2019-01-23T04:54:46.644Z,98616.27
2019-01-23T04:57:13.712Z,98616.17
2019-01-23T04:59:46.786Z,98616.77
2019-01-23T05:02:09.213Z,98614.12
2019-01-23T05:04:35.855Z,98616.88
2019-01-23T05:07:03.034Z,98603.92
2019-01-23T05:09:30.092Z,98609.18
2019-01-23T05:11:56.742Z,98606.29
2019-01-23T05:14:23.844Z,98600.59
2019-01-23T05:16:51.017Z,98597.02
2019-01-23T05:19:18.038Z,98594.89
2019-01-23T05:21:44.734Z,98597.53
2019-01-23T05:24:11.459Z,98597.58
2019-01-23T05:26:38.565Z,98594.17
2019-01-23T05:29:05.602Z,98600.42
2019-01-23T05:31:32.296Z,98591.48
2019-01-23T05:33:59.401Z,98596.36
2019-01-23T05:36:26.117Z,98594.91
2019-01-23T05:38:53.295Z,98598.67
2019-01-23T05:41:20.366Z,98599.60
2019-01-23T05:43:47.516Z,98597.66
2019-01-23T05:46:14.675Z,98600.80
2019-01-23T05:48:41.373Z,98603.64
2019-01-23T05:51:08.436Z,98607.92
2019-01-23T05:53:36.181Z,98607.64
2019-01-23T05:56:03.255Z,98605.59
2019-01-23T05:58:29.894Z,98608.23
2019-01-23T06:00:57.935Z,98604.17
2019-01-23T06:03:24.601Z,98607.26
2019-01-23T06:05:51.747Z,98601.06
2019-01-23T06:08:21.107Z,98598.78
2019-01-23T06:10:47.299Z,98596.24
2019-01-23T06:13:16.918Z,98591.09
2019-01-23T06:15:43.916Z,98591.41
2019-01-23T06:18:10.575Z,98595.78
2019-01-23T06:20:37.717Z,98597.22
2019-01-23T06:23:04.867Z,98595.75
2019-01-23T06:25:32.039Z,98600.88
2019-01-23T06:27:59.063Z,98604.58
2019-01-23T06:30:26.117Z,98604.80
2019-01-23T06:32:53.247Z,98601.77
2019-01-23T06:35:20.314Z,98610.28
2019-01-23T06:37:46.972Z,98605.52
2019-01-23T06:40:14.105Z,98605.34
2019-01-23T06:42:40.749Z,98615.02
2019-01-23T06:45:07.404Z,98607.20
2019-01-23T06:47:34.659Z,98610.63
2019-01-23T06:50:01.330Z,98608.53
2019-01-23T06:52:28.041Z,98609.61
2019-01-23T06:54:54.779Z,98599.11
2019-01-23T06:57:21.460Z,98595.75
2019-01-23T06:59:48.540Z,98595.16
2019-01-23T07:02:15.690Z,98592.81
2019-01-23T07:04:42.365Z,98592.13
2019-01-23T07:07:09.481Z,98599.80
2019-01-23T07:09:36.159Z,98599.94
2019-01-23T07:12:03.262Z,98601.47
2019-01-23T07:14:30.039Z,98598.92
2019-01-23T07:16:56.682Z,98597.45
2019-01-23T07:19:23.804Z,98598.50
2019-01-23T07:21:50.962Z,98596.17
2019-01-23T07:24:18.108Z,98598.97
2019-01-23T07:26:45.115Z,98599.53
2019-01-23T07:29:12.289Z,98592.47
2019-01-23T07:31:39.358Z,98599.86
2019-01-23T07:34:06.067Z,98596.55
2019-01-23T07:36:33.233Z,98591.98
2019-01-23T07:38:59.953Z,98596.48
2019-01-23T07:41:26.669Z,98599.05
2019-01-23T07:43:53.418Z,98593.64
2019-01-23T07:46:20.128Z,98600.18
2019-01-23T07:48:47.234Z,98594.38
2019-01-23T07:51:14.287Z,98592.11
2019-01-23T07:53:41.466Z,98595.25
2019-01-23T07:56:08.139Z,98598.42
2019-01-23T07:58:34.803Z,98589.16
2019-01-23T08:01:01.587Z,98592.01
2019-01-23T08:03:28.597Z,98592.14
2019-01-23T08:05:55.638Z,98596.82
2019-01-23T08:08:22.350Z,98599.21
2019-01-23T08:10:49.077Z,98588.19
2019-01-23T08:13:16.179Z,98593.11
2019-01-23T08:15:43.432Z,98596.47
2019-01-23T08:18:10.490Z,98598.44
2019-01-23T08:20:37.563Z,98590.70
2019-01-23T08:23:04.263Z,98594.25
2019-01-23T08:25:30.988Z,98586.39
2019-01-23T08:27:57.664Z,98591.25
2019-01-23T08:30:24.410Z,98593.77
2019-01-23T08:32:51.110Z,98601.11
2019-01-23T08:35:18.104Z,98593.88
2019-01-23T08:37:45.109Z,98593.20
2019-01-23T08:40:11.830Z,98593.44
2019-01-23T08:42:38.581Z,98593.77
2019-01-23T08:45:05.729Z,98595.56
2019-01-23T08:47:32.800Z,98591.75
2019-01-23T08:49:59.936Z,98594.01
2019-01-23T08:52:27.028Z,98584.63
2019-01-23T08:54:53.675Z,98584.95
2019-01-23T08:57:20.418Z,98581.61
2019-01-23T08:59:47.135Z,98583.69
2019-01-23T09:02:14.141Z,98576.63
2019-01-23T09:04:40.801Z,98579.59
2019-01-23T09:07:07.858Z,98579.60
2019-01-23T09:09:34.588Z,98578.43
2019-01-23T09:12:01.352Z,98580.67
2019-01-23T09:14:28.496Z,98582.40
2019-01-23T09:16:55.227Z,98575.87
2019-01-23T09:19:21.942Z,98579.84
2019-01-23T09:21:49.151Z,98576.56
2019-01-23T09:24:16.275Z,98577.95
2019-01-23T09:26:43.452Z,98579.64
2019-01-23T09:29:10.200Z,98580.44
2019-01-23T09:31:37.326Z,98577.87
2019-01-23T09:34:04.016Z,98577.61
2019-01-23T09:36:31.158Z,98580.72
2019-01-23T09:38:58.255Z,98580.68
2019-01-23T09:41:25.446Z,98571.91
2019-01-23T09:43:52.425Z,98571.75
2019-01-23T09:46:19.494Z,98574.98
2019-01-23T09:48:46.651Z,98570.25
2019-01-23T09:51:13.722Z,98564.05
2019-01-23T09:53:40.399Z,98563.81
2019-01-23T09:56:07.503Z,98563.28
2019-01-23T09:58:34.328Z,98559.96
2019-01-23T10:01:01.031Z,98558.70
2019-01-23T10:03:28.112Z,98551.73
2019-01-23T10:05:55.143Z,98552.73
2019-01-23T10:08:21.883Z,98554.18
2019-01-23T10:10:48.957Z,98553.21
2019-01-23T10:13:16.052Z,98549.70
2019-01-23T10:15:46.542Z,98547.70
2019-01-23T10:18:13.360Z,98550.67
2019-01-23T10:20:40.440Z,98545.43
2019-01-23T10:23:07.227Z,98546.20
2019-01-23T10:25:33.922Z,98549.62
2019-01-23T10:28:01.052Z,98540.92
2019-01-23T10:30:27.829Z,98544.31
2019-01-23T10:32:54.518Z,98534.52
2019-01-23T10:35:21.579Z,98535.98
2019-01-23T10:37:48.752Z,98532.56
2019-01-23T10:40:15.783Z,98532.50
2019-01-23T10:42:42.928Z,98536.70
2019-01-23T10:45:10.105Z,98527.84
2019-01-23T10:47:36.835Z,98528.17
2019-01-23T10:50:03.549Z,98523.66
2019-01-23T10:52:30.200Z,98519.00
2019-01-23T10:54:59.069Z,98514.50
2019-01-23T10:57:26.445Z,98511.73
2019-01-23T10:59:53.613Z,98511.30
2019-01-23T11:02:20.744Z,98506.70
2019-01-23T11:04:47.391Z,98501.45
2019-01-23T11:07:14.162Z,98501.21
2019-01-23T11:09:41.276Z,98498.06
2019-01-23T11:12:07.926Z,98500.61
2019-01-23T11:14:34.653Z,98496.95
2019-01-23T11:17:01.325Z,98497.91
2019-01-23T11:19:27.979Z,98502.66
2019-01-23T11:21:54.821Z,98492.08
2019-01-23T11:24:21.917Z,98494.95
2019-01-23T11:26:48.642Z,98496.62
2019-01-23T11:29:15.366Z,98489.69
2019-01-23T11:31:42.018Z,98486.34
2019-01-23T11:34:09.174Z,98488.09
2019-01-23T11:36:36.215Z,98482.84
2019-01-23T11:39:03.289Z,98486.83
2019-01-23T11:41:30.445Z,98480.47
2019-01-23T11:43:57.570Z,98480.34
2019-01-23T11:46:24.235Z,98477.31
2019-01-23T11:48:50.961Z,98471.80
2019-01-23T11:51:18.115Z,98475.53
2019-01-23T11:53:45.164Z,98474.50
2019-01-23T11:56:12.211Z,98470.45
2019-01-23T11:58:39.359Z,98470.55
2019-01-23T12:01:06.046Z,98470.80
2019-01-23T12:03:33.154Z,98470.95
2019-01-23T12:06:00.307Z,98469.83
2019-01-23T12:08:27.019Z,98469.02
2019-01-23T12:10:54.095Z,98471.33
2019-01-23T12:13:21.242Z,98472.09
2019-01-23T12:15:48.308Z,98469.74
2019-01-23T12:18:14.962Z,98466.00
2019-01-23T12:20:42.074Z,98459.44
2019-01-23T12:23:09.126Z,98455.45
2019-01-23T12:25:35.816Z,98450.62
2019-01-23T12:28:03.061Z,98451.01
2019-01-23T12:30:29.782Z,98458.44
2019-01-23T12:32:56.931Z,98450.98
2019-01-23T12:35:24.037Z,98454.61
2019-01-23T12:37:51.208Z,98450.96
2019-01-23T12:40:18.362Z,98445.66
2019-01-23T12:42:45.095Z,98453.37
2019-01-23T12:45:11.789Z,98452.33
2019-01-23T12:47:38.908Z,98447.38
2019-01-23T12:50:06.066Z,98452.75
2019-01-23T12:52:32.712Z,98450.52
2019-01-23T12:54:59.414Z,98452.98
2019-01-23T12:57:26.122Z,98451.34
2019-01-23T12:59:52.817Z,98446.66
2019-01-23T13:02:19.509Z,98448.31
2019-01-23T13:04:46.257Z,98447.56
2019-01-23T13:07:13.357Z,98447.78
2019-01-23T13:09:40.047Z,98440.77
2019-01-23T13:12:06.843Z,98443.49
2019-01-23T13:14:33.521Z,98437.63
2019-01-23T13:17:00.595Z,98445.86
2019-01-23T13:19:27.744Z,98445.25
2019-01-23T13:21:54.398Z,98446.95
2019-01-23T13:24:21.128Z,98446.52
2019-01-23T13:26:47.840Z,98447.28
2019-01-23T13:29:14.994Z,98451.13
2019-01-23T13:31:41.654Z,98452.28
2019-01-23T13:34:08.384Z,98453.75
2019-01-23T13:36:35.419Z,98457.08
2019-01-23T13:39:02.470Z,98457.20
2019-01-23T13:41:29.210Z,98464.31
2019-01-23T13:43:56.409Z,98462.13
2019-01-23T13:46:23.565Z,98461.77
2019-01-23T13:48:50.279Z,98467.39
2019-01-23T13:51:16.930Z,98471.17
2019-01-23T13:53:44.063Z,98471.27
2019-01-23T13:56:10.724Z,98472.59
2019-01-23T13:58:42.182Z,98471.11
2019-01-23T14:01:08.972Z,98473.78
2019-01-23T14:03:35.615Z,98475.84
2019-01-23T14:06:02.335Z,98475.64
2019-01-23T14:08:29.457Z,98477.98
2019-01-23T14:10:56.164Z,98481.46
2019-01-23T14:13:23.324Z,98481.79
2019-01-23T14:15:50.452Z,98479.50
2019-01-23T14:18:17.510Z,98479.33
2019-01-23T14:20:44.233Z,98474.88
2019-01-23T14:23:11.395Z,98478.11
2019-01-23T14:25:38.568Z,98481.46
2019-01-23T14:28:05.599Z,98480.47
2019-01-23T14:30:33.061Z,98481.46
2019-01-23T14:33:00.102Z,98485.95
2019-01-23T14:35:26.831Z,98481.88
2019-01-23T14:38:00.363Z,98485.83
2019-01-23T14:40:22.782Z,98484.34
2019-01-23T14:42:49.956Z,98487.23
2019-01-23T14:45:17.179Z,98486.77
2019-01-23T14:47:44.038Z,98492.17
2019-01-23T14:50:11.201Z,98492.97
2019-01-23T14:52:37.984Z,98493.06
2019-01-23T14:55:05.093Z,98493.61
2019-01-23T14:57:32.095Z,98500.96
2019-01-23T14:59:59.273Z,98501.13
2019-01-23T15:02:26.490Z,98507.25
2019-01-23T15:04:53.773Z,98500.77
2019-01-23T15:07:20.923Z,98496.11
2019-01-23T15:09:47.970Z,98500.69
2019-01-23T15:12:14.704Z,98500.63
2019-01-23T15:14:41.755Z,98498.98
2019-01-23T15:17:08.905Z,98500.60
2019-01-23T15:19:36.066Z,98506.79
2019-01-23T15:22:03.107Z,98502.52
2019-01-23T15:24:30.153Z,98506.34
2019-01-23T15:26:56.940Z,98511.31
2019-01-23T15:29:24.043Z,98508.73
2019-01-23T15:31:51.148Z,98512.47
2019-01-23T15:34:17.912Z,98516.64
2019-01-23T15:36:45.010Z,98513.08
2019-01-23T15:39:11.658Z,98517.62
2019-01-23T15:41:38.771Z,98517.76
2019-01-23T15:44:05.568Z,98527.31
2019-01-23T15:46:32.643Z,98516.84
2019-01-23T15:48:59.710Z,98524.41
2019-01-23T15:51:26.481Z,98523.28
2019-01-23T15:53:53.171Z,98530.41
2019-01-23T15:56:20.241Z,98532.03
2019-01-23T15:58:46.933Z,98530.71
2019-01-23T16:01:14.141Z,98528.58
2019-01-23T16:03:41.321Z,98528.52
2019-01-23T16:06:08.614Z,98534.00
2019-01-23T16:08:35.808Z,98531.56
2019-01-23T16:11:02.487Z,98527.17
2019-01-23T16:13:29.708Z,98535.16
2019-01-23T16:15:56.419Z,98534.56
2019-01-23T16:18:23.466Z,98538.81
2019-01-23T16:20:50.619Z,98536.19
2019-01-23T16:23:18.131Z,98537.95
2019-01-23T16:25:44.815Z,98543.66
2019-01-23T16:28:12.436Z,98540.69
2019-01-23T16:30:39.517Z,98544.66
2019-01-23T16:33:06.158Z,98546.57
2019-01-23T16:35:38.578Z,98546.95
2019-01-23T16:38:01.688Z,98548.20
2019-01-23T16:40:28.335Z,98553.02
2019-01-23T16:42:55.487Z,98557.34
2019-01-23T16:45:22.138Z,98551.63
2019-01-23T16:47:49.272Z,98555.97
2019-01-23T16:50:16.454Z,98552.85
2019-01-23T16:52:43.091Z,98557.56
2019-01-23T16:55:09.827Z,98567.63
2019-01-23T16:57:36.925Z,98562.84
2019-01-23T17:00:04.015Z,98566.24
2019-01-23T17:02:30.997Z,98566.31
2019-01-23T17:04:58.222Z,98565.16
2019-01-23T17:07:25.345Z,98571.53
2019-01-23T17:09:52.513Z,98572.94
2019-01-23T17:12:19.173Z,98575.59
2019-01-23T17:14:46.257Z,98574.25
2019-01-23T17:17:13.344Z,98570.16
2019-01-23T17:19:40.383Z,98571.91
2019-01-23T17:22:07.564Z,98571.91
2019-01-23T17:24:34.714Z,98576.48
2019-01-23T17:27:01.855Z,98578.23
2019-01-23T17:29:30.806Z,98571.91
2019-01-23T17:31:57.368Z,98572.89
2019-01-23T17:34:24.052Z,98571.22
2019-01-23T17:36:50.798Z,98575.20
2019-01-23T17:39:17.998Z,98574.75
2019-01-23T17:41:45.062Z,98578.73
2019-01-23T17:44:12.186Z,98575.05
2019-01-23T17:46:39.232Z,98577.27
2019-01-23T17:49:06.038Z,98577.37
2019-01-23T17:51:33.152Z,98577.43
2019-01-23T17:54:00.278Z,98579.49
2019-01-23T17:56:27.422Z,98583.98
2019-01-23T17:58:54.147Z,98574.86
2019-01-23T18:01:21.234Z,98582.60
2019-01-23T18:03:48.432Z,98586.32
2019-01-23T18:06:15.221Z,98585.77
2019-01-23T18:08:48.117Z,98583.30
2019-01-23T18:11:10.692Z,98587.09
2019-01-23T18:13:37.348Z,98585.45
2019-01-23T18:16:05.990Z,98584.56
2019-01-23T18:18:32.685Z,98592.31
2019-01-23T18:20:59.984Z,98589.16
2019-01-23T18:23:29.223Z,98593.55
2019-01-23T18:25:56.149Z,98599.03
2019-01-23T18:28:23.252Z,98598.98
2019-01-23T18:30:50.471Z,98598.99
2019-01-23T18:33:17.212Z,98601.74
2019-01-23T18:35:44.904Z,98602.84
2019-01-23T18:38:12.368Z,98603.66
2019-01-23T18:40:39.079Z,98610.27
2019-01-23T18:43:06.171Z,98611.70
2019-01-23T18:45:34.331Z,98618.62
2019-01-23T18:48:01.348Z,98616.23
2019-01-23T18:50:28.500Z,98616.30
2019-01-23T18:52:55.190Z,98618.48
2019-01-23T18:55:22.361Z,98618.16
2019-01-23T18:57:49.524Z,98621.00
2019-01-23T19:00:16.206Z,98619.61
2019-01-23T19:02:43.314Z,98619.27
2019-01-23T19:05:10.817Z,98622.41
2019-01-23T19:07:37.880Z,98624.20
2019-01-23T19:10:04.518Z,98625.73
2019-01-23T19:12:31.643Z,98624.26
2019-01-23T19:14:58.757Z,98626.93
2019-01-23T19:17:25.444Z,98630.02
2019-01-23T19:19:52.198Z,98635.64
2019-01-23T19:22:19.332Z,98632.04
2019-01-23T19:24:46.378Z,98628.57
2019-01-23T19:27:13.522Z,98628.27
2019-01-23T19:29:40.209Z,98632.41
2019-01-23T19:32:07.514Z,98633.77
2019-01-23T19:34:34.669Z,98636.27
2019-01-23T19:37:01.726Z,98639.52
2019-01-23T19:39:28.420Z,98640.86
2019-01-23T19:41:55.154Z,98645.55
2019-01-23T19:44:22.345Z,98648.48
2019-01-23T19:46:49.041Z,98654.97
2019-01-23T19:49:16.287Z,98654.97
2019-01-23T19:51:43.575Z,98646.85
2019-01-23T19:54:10.284Z,98653.06
2019-01-23T19:56:37.006Z,98650.49
2019-01-23T19:59:03.743Z,98650.27
2019-01-23T20:01:30.419Z,98657.05
2019-01-23T20:03:57.080Z,98659.45
2019-01-23T20:06:23.818Z,98660.54
2019-01-23T20:08:50.544Z,98660.69
2019-01-23T20:11:17.300Z,98666.96
2019-01-23T20:13:43.948Z,98672.02
2019-01-23T20:16:10.641Z,98668.22
2019-01-23T20:18:37.387Z,98670.25
2019-01-23T20:21:04.110Z,98663.64
2019-01-23T20:23:30.821Z,98667.13
2019-01-23T20:25:57.945Z,98658.94
2019-01-23T20:28:24.646Z,98661.67
2019-01-23T20:30:51.746Z,98664.17
2019-01-23T20:33:18.909Z,98666.19
2019-01-23T20:35:45.591Z,98663.91
2019-01-23T20:38:12.777Z,98669.79
2019-01-23T20:40:39.944Z,98676.45
2019-01-23T20:43:06.673Z,98671.86
2019-01-23T20:45:33.465Z,98675.68
2019-01-23T20:48:00.550Z,98673.23
2019-01-23T20:50:28.017Z,98678.50
2019-01-23T20:52:54.947Z,98678.31
2019-01-23T20:55:21.727Z,98682.63
2019-01-23T20:57:55.497Z,98683.78
2019-01-23T21:00:22.699Z,98686.48
2019-01-23T21:02:49.810Z,98688.00
2019-01-23T21:05:16.534Z,98681.13
2019-01-23T21:07:44.031Z,98686.75
2019-01-23T21:10:10.847Z,98692.77
2019-01-23T21:12:37.898Z,98684.89
2019-01-23T21:15:05.169Z,98682.38
2019-01-23T21:17:31.897Z,98680.59
2019-01-23T21:20:02.844Z,98683.88
2019-01-23T21:22:29.543Z,98678.22
2019-01-23T21:24:56.863Z,98681.41
2019-01-23T21:27:23.698Z,98680.59
2019-01-23T21:29:50.838Z,98682.28
2019-01-23T21:32:18.312Z,98680.62
2019-01-23T21:34:45.491Z,98682.88
2019-01-23T21:37:12.681Z,98684.69
2019-01-23T21:39:39.747Z,98678.85
2019-01-23T21:42:06.399Z,98679.49
2019-01-23T21:44:33.124Z,98683.10
2019-01-23T21:47:00.250Z,98685.67
2019-01-23T21:49:29.767Z,98689.77
2019-01-23T21:52:01.036Z,98697.69
2019-01-23T21:54:29.631Z,98698.02
2019-01-23T21:57:01.971Z,98697.27
2019-01-23T21:59:26.489Z,98698.63
2019-01-23T22:01:53.616Z,98704.87
2019-01-23T22:04:21.462Z,98705.78
2019-01-23T22:06:48.664Z,98704.56
2019-01-23T22:09:16.446Z,98705.47
2019-01-23T22:11:43.954Z,98716.27
2019-01-23T22:14:11.302Z,98716.20
2019-01-23T22:16:38.466Z,98713.16
2019-01-23T22:19:05.183Z,98718.97
2019-01-23T22:21:32.743Z,98720.68
2019-01-23T22:23:59.998Z,98726.68
2019-01-23T22:26:27.047Z,98730.03
2019-01-23T22:28:53.709Z,98733.42
2019-01-23T22:31:20.854Z,98731.62
2019-01-23T22:33:48.029Z,98730.59
2019-01-23T22:36:14.737Z,98740.48
2019-01-23T22:38:41.493Z,98736.18
2019-01-23T22:41:08.614Z,98742.85
2019-01-23T22:43:35.355Z,98745.19
2019-01-23T22:46:02.407Z,98748.69
2019-01-23T22:48:29.479Z,98747.16
2019-01-23T22:50:56.624Z,98743.66
2019-01-23T22:53:23.782Z,98744.93
2019-01-23T22:55:50.928Z,98743.83
2019-01-23T22:58:17.953Z,98742.61
2019-01-23T23:00:45.143Z,98750.02
2019-01-23T23:03:11.857Z,98762.06
2019-01-23T23:05:39.008Z,98756.74
2019-01-23T23:08:06.162Z,98752.81
2019-01-23T23:10:32.882Z,98758.89
2019-01-23T23:12:59.606Z,98761.34
2019-01-23T23:15:26.683Z,98757.49
2019-01-23T23:17:53.872Z,98757.23
2019-01-23T23:20:20.583Z,98758.94
2019-01-23T23:22:47.742Z,98753.77
2019-01-23T23:25:14.397Z,98755.11
2019-01-23T23:27:41.142Z,98754.96
2019-01-23T23:30:07.859Z,98755.64
2019-01-23T23:32:35.035Z,98753.69
2019-01-23T23:35:02.154Z,98754.06
2019-01-23T23:37:28.803Z,98752.48
2019-01-23T23:39:55.922Z,98754.98
2019-01-23T23:42:23.121Z,98756.31
2019-01-23T23:44:50.241Z,98752.38
2019-01-23T23:47:17.387Z,98752.87
2019-01-23T23:49:44.043Z,98758.83
2019-01-23T23:52:11.159Z,98751.53
2019-01-23T23:54:39.016Z,98754.21
2019-01-23T23:57:06.704Z,98753.13
2019-01-23T23:59:34.518Z,98754.97
